createdAt,value
2018-06-23T00:00:59.905Z,98.71
2018-06-23T00:03:28.889Z,96.88
2018-06-23T00:05:57.843Z,97.28
2018-06-23T00:08:27.002Z,95.29
2018-06-23T00:10:55.988Z,95.36
2018-06-23T00:13:24.959Z,94.03
2018-06-23T00:15:53.942Z,94.03
2018-06-23T00:18:22.910Z,93.34
2018-06-23T00:20:51.880Z,92.00
2018-06-23T00:23:20.927Z,91.78
2018-06-23T00:25:55.218Z,91.65
2018-06-23T00:28:24.182Z,92.24
2018-06-23T00:30:53.164Z,92.71
2018-06-23T00:33:22.417Z,93.04
2018-06-23T00:35:51.397Z,92.00
2018-06-23T00:38:20.561Z,91.46
2018-06-23T00:40:49.580Z,91.42
2018-06-23T00:43:18.576Z,91.12
2018-06-23T00:45:47.581Z,90.49
2018-06-23T00:48:16.546Z,90.86
2018-06-23T00:50:45.547Z,91.26
2018-06-23T00:53:15.011Z,90.25
2018-06-23T00:55:43.970Z,91.00
2018-06-23T00:58:13.048Z,90.62
2018-06-23T01:00:42.048Z,89.51
2018-06-23T01:03:11.046Z,88.82
2018-06-23T01:05:40.284Z,89.95
2018-06-23T01:08:09.326Z,88.67
2018-06-23T01:10:38.332Z,89.50
2018-06-23T01:13:07.439Z,89.28
2018-06-23T01:15:36.666Z,88.59
2018-06-23T01:18:05.645Z,87.13
2018-06-23T01:20:34.628Z,87.52
2018-06-23T01:23:03.609Z,87.25
2018-06-23T01:25:32.585Z,87.61
2018-06-23T01:28:01.571Z,87.84
2018-06-23T01:30:30.611Z,87.62
2018-06-23T01:32:59.724Z,87.52
2018-06-23T01:35:28.720Z,87.57
2018-06-23T01:37:57.706Z,88.14
2018-06-23T01:40:26.821Z,88.69
2018-06-23T01:42:55.846Z,88.01
2018-06-23T01:45:24.876Z,88.03
2018-06-23T01:47:53.899Z,87.64
2018-06-23T01:50:22.847Z,87.15
2018-06-23T01:52:51.825Z,87.60
2018-06-23T01:55:20.891Z,88.52
2018-06-23T01:57:49.916Z,88.66
2018-06-23T02:00:18.933Z,88.12
2018-06-23T02:02:47.973Z,88.71
2018-06-23T02:05:16.960Z,87.89
2018-06-23T02:07:45.981Z,87.90
2018-06-23T02:10:14.976Z,87.54
2018-06-23T02:12:44.029Z,88.00
2018-06-23T02:15:12.991Z,87.61
2018-06-23T02:17:47.454Z,88.22
2018-06-23T02:20:21.720Z,89.39
2018-06-23T02:22:56.039Z,88.64
2018-06-23T02:25:30.353Z,88.88
2018-06-23T02:28:04.756Z,89.63
2018-06-23T02:30:39.217Z,89.74
2018-06-23T02:33:14.742Z,87.98
2018-06-23T02:35:43.987Z,87.23
2018-06-23T02:38:13.069Z,87.77
2018-06-23T02:40:42.107Z,88.28
2018-06-23T02:43:11.101Z,89.10
2018-06-23T02:45:40.071Z,88.78
2018-06-23T02:48:09.091Z,88.27
2018-06-23T02:50:38.081Z,88.48
2018-06-23T02:53:07.057Z,86.60
2018-06-23T02:55:36.026Z,87.66
2018-06-23T02:58:05.181Z,87.88
2018-06-23T03:00:34.156Z,87.01
2018-06-23T03:03:03.139Z,86.59
2018-06-23T03:05:32.141Z,86.63
2018-06-23T03:08:01.122Z,86.73
2018-06-23T03:10:30.150Z,86.71
2018-06-23T03:12:59.135Z,87.86
2018-06-23T03:15:31.558Z,86.30
2018-06-23T03:18:00.719Z,87.37
2018-06-23T03:20:31.194Z,86.93
2018-06-23T03:23:00.357Z,87.17
2018-06-23T03:25:29.700Z,86.82
2018-06-23T03:27:58.682Z,86.92
2018-06-23T03:30:27.695Z,87.62
2018-06-23T03:32:57.872Z,87.35
2018-06-23T03:35:26.878Z,87.65
2018-06-23T03:37:55.999Z,87.42
2018-06-23T03:40:25.112Z,86.68
2018-06-23T03:42:54.107Z,87.32
2018-06-23T03:45:23.239Z,86.12
2018-06-23T03:47:52.342Z,85.24
2018-06-23T03:50:21.328Z,85.24
2018-06-23T03:52:50.351Z,85.69
2018-06-23T03:55:20.878Z,84.72
2018-06-23T03:57:49.859Z,84.71
2018-06-23T04:00:18.827Z,85.22
2018-06-23T04:02:47.820Z,84.35
2018-06-23T04:05:16.895Z,84.20
2018-06-23T04:07:45.864Z,84.75
2018-06-23T04:10:14.917Z,84.21
2018-06-23T04:12:43.939Z,84.09
2018-06-23T04:15:12.957Z,83.65
2018-06-23T04:17:43.120Z,82.65
2018-06-23T04:20:12.196Z,81.84
2018-06-23T04:22:41.213Z,82.68
2018-06-23T04:25:10.243Z,83.71
2018-06-23T04:27:39.217Z,81.90
2018-06-23T04:30:08.226Z,81.87
2018-06-23T04:32:37.193Z,81.13
2018-06-23T04:35:07.362Z,81.41
2018-06-23T04:37:36.401Z,81.23
2018-06-23T04:40:05.438Z,80.37
2018-06-23T04:42:34.408Z,82.91
2018-06-23T04:45:03.419Z,81.34
2018-06-23T04:47:32.421Z,80.74
2018-06-23T04:50:01.404Z,80.76
2018-06-23T04:52:30.408Z,80.95
2018-06-23T04:55:01.143Z,81.00
2018-06-23T04:57:30.107Z,81.41
2018-06-23T04:59:59.336Z,80.02
2018-06-23T05:02:28.735Z,79.89
2018-06-23T05:04:57.893Z,81.24
2018-06-23T05:07:26.856Z,79.92
2018-06-23T05:09:55.845Z,82.48
2018-06-23T05:12:24.829Z,80.27
2018-06-23T05:14:53.800Z,79.80
2018-06-23T05:17:22.881Z,80.56
2018-06-23T05:19:52.184Z,80.45
2018-06-23T05:22:21.442Z,78.78
2018-06-23T05:24:51.959Z,78.67
2018-06-23T05:27:20.980Z,79.03
2018-06-23T05:29:50.424Z,77.58
2018-06-23T05:32:21.332Z,76.65
2018-06-23T05:34:50.391Z,77.73
2018-06-23T05:37:19.354Z,77.31
2018-06-23T05:39:48.331Z,75.51
2018-06-23T05:42:17.321Z,76.35
2018-06-23T05:44:46.364Z,76.41
2018-06-23T05:47:15.386Z,75.54
2018-06-23T05:49:44.508Z,75.43
2018-06-23T05:52:13.890Z,74.66
2018-06-23T05:54:43.083Z,74.55
2018-06-23T05:57:12.283Z,75.12
2018-06-23T05:59:41.445Z,73.62
2018-06-23T06:02:12.619Z,72.46
2018-06-23T06:04:42.126Z,71.55
2018-06-23T06:07:12.033Z,68.76
2018-06-23T06:09:41.055Z,68.04
2018-06-23T06:12:10.076Z,64.42
2018-06-23T06:14:39.050Z,60.82
2018-06-23T06:17:28.944Z,57.82
2018-06-23T06:20:00.112Z,59.58
2018-06-23T06:22:33.009Z,57.87
2018-06-23T06:25:02.114Z,55.47
2018-06-23T06:27:31.656Z,54.46
2018-06-23T06:30:00.709Z,51.93
2018-06-23T06:32:30.064Z,48.83
2018-06-23T06:34:59.222Z,46.24
2018-06-23T06:37:28.167Z,47.26
2018-06-23T06:39:57.428Z,44.65
2018-06-23T06:42:26.453Z,46.32
2018-06-23T06:44:55.724Z,48.23
2018-06-23T06:47:24.710Z,46.30
2018-06-23T06:49:53.725Z,45.32
2018-06-23T06:52:22.729Z,45.32
2018-06-23T06:54:51.901Z,43.84
2018-06-23T06:57:21.378Z,44.83
2018-06-23T06:59:50.448Z,43.32
2018-06-23T07:02:19.453Z,43.65
2018-06-23T07:04:48.489Z,43.59
2018-06-23T07:07:17.485Z,45.19
2018-06-23T07:09:46.574Z,43.52
2018-06-23T07:12:15.581Z,42.53
2018-06-23T07:14:44.665Z,41.96
2018-06-23T07:17:13.683Z,42.32
2018-06-23T07:19:42.952Z,42.03
2018-06-23T07:22:12.591Z,43.99
2018-06-23T07:24:41.686Z,45.85
2018-06-23T07:27:11.647Z,47.30
2018-06-23T07:29:40.660Z,44.25
2018-06-23T07:32:09.744Z,44.16
2018-06-23T07:34:38.779Z,47.63
2018-06-23T07:37:07.742Z,49.97
2018-06-23T07:39:36.745Z,50.38
2018-06-23T07:42:06.486Z,50.54
2018-06-23T07:44:35.648Z,52.40
2018-06-23T07:47:04.641Z,51.35
2018-06-23T07:49:33.605Z,52.86
2018-06-23T07:52:02.622Z,55.51
2018-06-23T07:54:31.634Z,56.18
2018-06-23T07:57:00.663Z,57.53
2018-06-23T07:59:29.624Z,58.77
2018-06-23T08:01:58.907Z,59.09
2018-06-23T08:04:28.922Z,60.41
2018-06-23T08:06:58.000Z,62.12
2018-06-23T08:09:27.091Z,62.82
2018-06-23T08:11:57.232Z,63.93
2018-06-23T08:14:26.264Z,64.87
2018-06-23T08:16:55.712Z,66.10
2018-06-23T08:19:24.670Z,65.28
2018-06-23T08:21:54.249Z,64.85
2018-06-23T08:24:23.306Z,65.30
2018-06-23T08:26:52.290Z,67.20
2018-06-23T08:29:21.285Z,65.78
2018-06-23T08:31:50.313Z,65.41
2018-06-23T08:34:19.335Z,65.94
2018-06-23T08:36:48.304Z,65.65
2018-06-23T08:39:17.608Z,65.75
2018-06-23T08:41:46.623Z,65.00
2018-06-23T08:44:15.697Z,67.35
2018-06-23T08:46:46.278Z,67.20
2018-06-23T08:49:15.293Z,69.15
2018-06-23T08:51:46.337Z,67.90
2018-06-23T08:54:15.339Z,70.14
2018-06-23T08:56:44.323Z,70.34
2018-06-23T08:59:13.839Z,72.95
2018-06-23T09:01:42.938Z,74.54
2018-06-23T09:04:11.948Z,73.89
2018-06-23T09:06:41.446Z,73.54
2018-06-23T09:09:11.130Z,73.52
2018-06-23T09:11:40.558Z,77.20
2018-06-23T09:14:09.775Z,79.29
2018-06-23T09:16:38.827Z,79.10
2018-06-23T09:19:07.845Z,80.64
2018-06-23T09:21:36.931Z,80.54
2018-06-23T09:24:05.916Z,80.73
2018-06-23T09:26:36.286Z,80.62
2018-06-23T09:29:05.260Z,80.88
2018-06-23T09:31:34.731Z,78.08
2018-06-23T09:34:03.942Z,79.17
2018-06-23T09:36:33.022Z,76.82
2018-06-23T09:39:02.075Z,77.36
2018-06-23T09:41:31.135Z,74.39
2018-06-23T09:44:00.135Z,75.10
2018-06-23T09:46:29.121Z,77.03
2018-06-23T09:48:58.075Z,77.92
2018-06-23T09:51:28.667Z,81.24
2018-06-23T09:53:57.633Z,82.17
2018-06-23T09:56:26.664Z,82.97
2018-06-23T09:58:55.618Z,80.96
2018-06-23T10:01:24.592Z,81.74
2018-06-23T10:03:53.579Z,83.42
2018-06-23T10:06:22.663Z,83.46
2018-06-23T10:08:51.666Z,84.22
2018-06-23T10:11:20.714Z,84.42
2018-06-23T10:13:49.845Z,83.92
2018-06-23T10:16:18.882Z,84.85
2018-06-23T10:18:47.897Z,83.57
2018-06-23T10:21:16.864Z,84.33
2018-06-23T10:23:45.846Z,84.42
2018-06-23T10:26:14.852Z,83.72
2018-06-23T10:28:43.904Z,86.37
2018-06-23T10:31:12.944Z,86.34
2018-06-23T10:33:42.018Z,86.94
2018-06-23T10:36:11.022Z,85.63
2018-06-23T10:38:40.096Z,85.23
2018-06-23T10:41:09.025Z,86.47
2018-06-23T10:43:38.095Z,85.17
2018-06-23T10:46:07.114Z,83.93
2018-06-23T10:48:36.114Z,83.60
2018-06-23T10:51:06.095Z,85.09
2018-06-23T10:53:35.230Z,82.68
2018-06-23T10:56:04.432Z,82.43
2018-06-23T10:58:33.413Z,82.01
2018-06-23T11:01:02.444Z,83.89
2018-06-23T11:03:31.473Z,82.75
2018-06-23T11:06:00.591Z,81.17
2018-06-23T11:08:29.574Z,81.76
2018-06-23T11:10:58.580Z,80.87
2018-06-23T11:13:27.732Z,81.78
2018-06-23T11:15:56.794Z,81.64
2018-06-23T11:18:25.747Z,81.12
2018-06-23T11:20:54.782Z,80.98
2018-06-23T11:23:23.752Z,82.02
2018-06-23T11:25:52.731Z,80.07
2018-06-23T11:28:21.692Z,80.70
2018-06-23T11:30:50.732Z,80.45
2018-06-23T11:33:19.688Z,79.46
2018-06-23T11:35:48.691Z,78.93
2018-06-23T11:38:17.745Z,79.65
2018-06-23T11:40:46.770Z,79.71
2018-06-23T11:43:15.735Z,79.95
2018-06-23T11:45:44.708Z,81.11
2018-06-23T11:48:13.678Z,80.04
2018-06-23T11:50:42.649Z,79.76
2018-06-23T11:53:11.679Z,80.38
2018-06-23T11:55:40.620Z,80.05
2018-06-23T11:58:09.583Z,80.38
2018-06-23T12:00:38.549Z,81.49
2018-06-23T12:03:07.596Z,80.92
2018-06-23T12:05:36.531Z,81.72
2018-06-23T12:08:05.637Z,80.77
2018-06-23T12:10:34.741Z,80.35
2018-06-23T12:13:03.839Z,80.65
2018-06-23T12:15:32.807Z,80.58
2018-06-23T12:18:01.859Z,79.77
2018-06-23T12:20:30.896Z,78.24
2018-06-23T12:22:59.891Z,79.84
2018-06-23T12:25:29.155Z,78.44
2018-06-23T12:27:58.342Z,75.48
2018-06-23T12:30:27.334Z,73.97
2018-06-23T12:32:56.332Z,73.13
2018-06-23T12:35:25.339Z,72.18
2018-06-23T12:37:54.325Z,71.96
2018-06-23T12:40:23.299Z,70.40
2018-06-23T12:42:52.372Z,71.16
2018-06-23T12:45:21.367Z,70.81
2018-06-23T12:47:50.377Z,70.55
2018-06-23T12:50:19.387Z,71.73
2018-06-23T12:52:48.516Z,72.83
2018-06-23T12:55:20.121Z,72.85
2018-06-23T12:57:49.200Z,70.71
2018-06-23T13:00:18.168Z,71.44
2018-06-23T13:02:47.162Z,71.32
2018-06-23T13:05:16.204Z,70.03
2018-06-23T13:07:45.218Z,70.76
2018-06-23T13:10:15.397Z,70.45
2018-06-23T13:12:44.502Z,70.11
2018-06-23T13:15:13.536Z,70.51
2018-06-23T13:17:42.581Z,68.57
2018-06-23T13:20:11.633Z,67.01
2018-06-23T13:22:40.650Z,65.85
2018-06-23T13:25:09.677Z,65.48
2018-06-23T13:27:38.658Z,65.54
2018-06-23T13:30:07.634Z,66.29
2018-06-23T13:32:36.644Z,66.84
2018-06-23T13:35:05.644Z,64.06
2018-06-23T13:37:34.669Z,63.60
2018-06-23T13:40:03.653Z,61.39
2018-06-23T13:42:33.565Z,62.93
2018-06-23T13:45:02.769Z,64.98
2018-06-23T13:47:32.025Z,63.89
2018-06-23T13:50:01.016Z,65.48
2018-06-23T13:52:30.324Z,64.98
2018-06-23T13:54:59.385Z,65.17
2018-06-23T13:57:28.359Z,67.49
2018-06-23T13:59:57.543Z,65.36
2018-06-23T14:02:26.618Z,66.18
2018-06-23T14:04:55.621Z,67.83
2018-06-23T14:07:24.814Z,68.07
2018-06-23T14:09:53.838Z,70.93
2018-06-23T14:12:22.803Z,72.33
2018-06-23T14:14:51.861Z,73.89
2018-06-23T14:17:20.837Z,75.03
2018-06-23T14:19:49.946Z,73.51
2018-06-23T14:22:18.956Z,73.63
2018-06-23T14:24:47.960Z,73.78
2018-06-23T14:27:17.005Z,73.17
2018-06-23T14:29:46.163Z,73.98
2018-06-23T14:32:15.451Z,77.05
2018-06-23T14:34:44.313Z,79.57
2018-06-23T14:37:13.367Z,80.10
2018-06-23T14:39:42.483Z,83.82
2018-06-23T14:42:11.470Z,87.29
2018-06-23T14:44:40.471Z,88.09
2018-06-23T14:47:09.470Z,89.83
2018-06-23T14:49:38.432Z,90.77
2018-06-23T14:52:07.490Z,90.66
2018-06-23T14:54:36.466Z,90.55
2018-06-23T14:57:05.605Z,89.40
2018-06-23T14:59:34.780Z,92.34
2018-06-23T15:02:03.724Z,93.26
2018-06-23T15:04:32.804Z,95.36
2018-06-23T15:07:01.828Z,94.01
2018-06-23T15:09:42.106Z,94.53
2018-06-23T15:12:22.732Z,95.11
2018-06-23T15:14:52.450Z,93.28
2018-06-23T15:17:21.514Z,93.09
2018-06-23T15:19:50.483Z,93.11
2018-06-23T15:22:19.510Z,91.12
2018-06-23T15:24:48.476Z,91.99
2018-06-23T15:27:17.488Z,92.63
2018-06-23T15:29:46.445Z,91.58
2018-06-23T15:32:15.439Z,90.03
2018-06-23T15:34:44.442Z,91.77
2018-06-23T15:37:13.402Z,91.03
2018-06-23T15:39:42.429Z,91.68
2018-06-23T15:42:11.479Z,91.08
2018-06-23T15:44:40.542Z,90.25
2018-06-23T15:47:09.600Z,90.84
2018-06-23T15:49:38.570Z,91.75
2018-06-23T15:52:07.574Z,91.18
2018-06-23T15:54:36.552Z,91.84
2018-06-23T15:57:05.725Z,93.66
2018-06-23T15:59:34.791Z,93.22
2018-06-23T16:02:03.882Z,93.87
2018-06-23T16:04:33.041Z,94.56
2018-06-23T16:07:02.511Z,93.38
2018-06-23T16:09:31.556Z,94.74
2018-06-23T16:12:00.535Z,95.40
2018-06-23T16:14:29.554Z,94.05
2018-06-23T16:16:58.557Z,94.51
2018-06-23T16:19:27.580Z,94.94
2018-06-23T16:21:56.548Z,95.27
2018-06-23T16:24:25.524Z,94.77
2018-06-23T16:26:54.487Z,94.92
2018-06-23T16:29:23.543Z,94.46
2018-06-23T16:31:52.812Z,95.65
2018-06-23T16:34:21.810Z,96.17
2018-06-23T16:36:50.849Z,96.69
2018-06-23T16:39:19.932Z,96.22
2018-06-23T16:41:48.933Z,94.88
2018-06-23T16:44:17.921Z,97.01
2018-06-23T16:46:47.128Z,98.04
2018-06-23T16:49:16.120Z,97.47
2018-06-23T16:51:45.113Z,97.84
2018-06-23T16:54:14.131Z,97.71
2018-06-23T16:56:43.243Z,97.15
2018-06-23T16:59:12.223Z,98.75
2018-06-23T17:01:41.236Z,98.04
2018-06-23T17:04:10.279Z,98.38
2018-06-23T17:06:39.351Z,97.04
2018-06-23T17:09:09.697Z,98.91
2018-06-23T17:11:39.096Z,98.26
2018-06-23T17:14:08.385Z,98.80
2018-06-23T17:16:37.524Z,97.96
2018-06-23T17:19:06.797Z,98.45
2018-06-23T17:21:36.087Z,98.53
2018-06-23T17:24:05.412Z,99.04
2018-06-23T17:26:34.770Z,98.62
2018-06-23T17:29:03.836Z,98.81
2018-06-23T17:31:32.925Z,97.61
2018-06-23T17:34:01.935Z,97.66
2018-06-23T17:36:30.987Z,97.03
2018-06-23T17:39:00.160Z,97.11
2018-06-23T17:41:29.224Z,96.17
2018-06-23T17:43:58.261Z,96.35
2018-06-23T17:46:27.267Z,95.57
2018-06-23T17:48:56.448Z,96.79
2018-06-23T17:51:25.447Z,96.03
2018-06-23T17:53:55.160Z,93.16
2018-06-23T17:56:24.480Z,94.59
2018-06-23T17:58:53.605Z,93.14
2018-06-23T18:01:22.637Z,94.39
2018-06-23T18:03:51.673Z,93.89
2018-06-23T18:06:20.735Z,93.52
2018-06-23T18:08:49.707Z,93.06
2018-06-23T18:11:18.764Z,93.98
2018-06-23T18:13:47.798Z,93.88
2018-06-23T18:16:16.879Z,94.13
2018-06-23T18:18:45.903Z,94.83
2018-06-23T18:21:15.047Z,93.03
2018-06-23T18:23:44.065Z,90.66
2018-06-23T18:26:13.174Z,89.17
2018-06-23T18:28:42.193Z,87.58
2018-06-23T18:31:11.169Z,90.44
2018-06-23T18:33:40.151Z,89.44
2018-06-23T18:36:09.144Z,87.95
2018-06-23T18:38:38.123Z,90.54
2018-06-23T18:41:07.086Z,90.09
2018-06-23T18:43:36.144Z,92.07
2018-06-23T18:46:05.216Z,90.77
2018-06-23T18:48:34.263Z,91.41
2018-06-23T18:51:03.392Z,91.47
2018-06-23T18:53:32.382Z,90.98
2018-06-23T18:56:01.387Z,92.18
2018-06-23T18:58:30.402Z,90.50
2018-06-23T19:00:59.517Z,89.92
2018-06-23T19:03:28.664Z,89.30
2018-06-23T19:05:59.107Z,89.74
2018-06-23T19:08:28.081Z,89.65
2018-06-23T19:10:57.159Z,91.48
2018-06-23T19:13:26.138Z,88.38
2018-06-23T19:15:55.155Z,89.22
2018-06-23T19:18:24.150Z,88.59
2018-06-23T19:20:53.158Z,90.24
2018-06-23T19:23:22.504Z,90.16
2018-06-23T19:25:51.518Z,89.77
2018-06-23T19:28:20.510Z,90.07
2018-06-23T19:30:49.646Z,88.25
2018-06-23T19:33:18.743Z,87.37
2018-06-23T19:35:47.804Z,86.79
2018-06-23T19:38:17.079Z,87.68
2018-06-23T19:40:46.108Z,88.08
2018-06-23T19:43:15.227Z,88.28
2018-06-23T19:45:44.278Z,88.78
2018-06-23T19:48:13.262Z,89.93
2018-06-23T19:50:42.311Z,89.02
2018-06-23T19:53:11.339Z,89.33
2018-06-23T19:55:40.323Z,89.34
2018-06-23T19:58:09.369Z,90.16
2018-06-23T20:00:38.875Z,89.99
2018-06-23T20:03:08.360Z,90.67
2018-06-23T20:05:37.402Z,90.24
2018-06-23T20:08:06.418Z,90.77
2018-06-23T20:10:35.520Z,89.90
2018-06-23T20:13:04.838Z,89.92
2018-06-23T20:15:34.673Z,90.15
2018-06-23T20:18:03.756Z,90.26
2018-06-23T20:20:33.222Z,90.63
2018-06-23T20:23:02.350Z,90.39
2018-06-23T20:25:31.539Z,90.32
2018-06-23T20:28:00.617Z,88.98
2018-06-23T20:30:29.650Z,90.21
2018-06-23T20:32:58.710Z,89.18
2018-06-23T20:35:27.801Z,87.90
2018-06-23T20:37:56.874Z,88.28
2018-06-23T20:40:25.971Z,88.79
2018-06-23T20:42:54.977Z,88.99
2018-06-23T20:45:23.990Z,89.43
2018-06-23T20:47:53.003Z,88.91
2018-06-23T20:50:22.097Z,87.84
2018-06-23T20:52:51.151Z,88.25
2018-06-23T20:55:20.204Z,88.14
2018-06-23T20:57:49.243Z,88.19
2018-06-23T21:00:18.298Z,88.72
2018-06-23T21:02:47.672Z,88.42
2018-06-23T21:05:16.694Z,88.28
2018-06-23T21:07:45.777Z,88.54
2018-06-23T21:10:26.947Z,88.79
2018-06-23T21:12:56.089Z,89.45
2018-06-23T21:15:25.100Z,89.56
2018-06-23T21:17:54.115Z,89.76
2018-06-23T21:20:23.522Z,90.26
2018-06-23T21:22:52.512Z,90.10
2018-06-23T21:25:21.513Z,89.51
2018-06-23T21:27:50.556Z,89.70
2018-06-23T21:30:19.593Z,90.57
2018-06-23T21:32:48.663Z,90.81
2018-06-23T21:35:17.754Z,90.45
2018-06-23T21:37:46.784Z,91.68
2018-06-23T21:40:15.854Z,92.02
2018-06-23T21:42:44.981Z,92.33
2018-06-23T21:45:14.075Z,93.05
2018-06-23T21:47:43.248Z,94.30
2018-06-23T21:50:12.236Z,94.01
2018-06-23T21:52:41.257Z,93.49
2018-06-23T21:55:10.245Z,94.25
2018-06-23T21:57:39.440Z,94.26
2018-06-23T22:00:12.363Z,94.18
2018-06-23T22:02:41.362Z,94.84
2018-06-23T22:05:10.349Z,94.68
2018-06-23T22:07:39.317Z,94.42
2018-06-23T22:10:08.303Z,95.60
2018-06-23T22:12:37.300Z,94.68
2018-06-23T22:15:06.274Z,95.37
2018-06-23T22:17:35.334Z,94.51
2018-06-23T22:20:04.327Z,95.74
2018-06-23T22:22:33.316Z,96.68
2018-06-23T22:25:02.429Z,96.35
2018-06-23T22:27:31.549Z,96.47
2018-06-23T22:30:00.584Z,95.87
2018-06-23T22:32:29.574Z,96.65
2018-06-23T22:34:58.550Z,95.91
2018-06-23T22:37:27.790Z,95.73
2018-06-23T22:39:56.769Z,96.09
2018-06-23T22:42:25.731Z,95.90
2018-06-23T22:44:54.795Z,96.65
2018-06-23T22:47:23.829Z,97.77
2018-06-23T22:49:52.819Z,97.91
2018-06-23T22:52:21.801Z,97.82
2018-06-23T22:54:50.875Z,97.97
2018-06-23T22:57:19.863Z,98.14
2018-06-23T22:59:48.906Z,99.77
2018-06-23T23:02:17.920Z,99.75
2018-06-23T23:04:46.923Z,100.00
2018-06-23T23:07:15.913Z,100.00
2018-06-23T23:09:44.919Z,100.00
2018-06-23T23:12:14.013Z,100.00
2018-06-23T23:14:43.032Z,100.00
2018-06-23T23:17:12.109Z,100.00
2018-06-23T23:19:41.103Z,100.00
2018-06-23T23:22:10.089Z,100.00
2018-06-23T23:24:39.090Z,100.00
2018-06-23T23:27:08.098Z,100.00
2018-06-23T23:29:37.191Z,100.00
2018-06-23T23:32:06.283Z,100.00
2018-06-23T23:34:35.262Z,100.00
2018-06-23T23:37:04.276Z,100.00
2018-06-23T23:39:33.305Z,100.00
2018-06-23T23:42:03.419Z,100.00
2018-06-23T23:44:32.544Z,100.00
2018-06-23T23:47:01.646Z,100.00
2018-06-23T23:49:30.679Z,100.00
2018-06-23T23:51:59.757Z,100.00
2018-06-23T23:54:28.709Z,100.00
2018-06-23T23:56:57.683Z,100.00
2018-06-23T23:59:26.678Z,100.00
